sensor_id;sensor_type;location;lat;lon;timestamp;temperature;humidity
33741;DHT22;20065;48.380;10.892;2023-04-25T00:02:01;10.00;99.90
33741;DHT22;20065;48.380;10.892;2023-04-25T00:04:48;9.90;99.90
33741;DHT22;20065;48.380;10.892;2023-04-25T00:07:34;9.80;99.90
33741;DHT22;20065;48.380;10.892;2023-04-25T00:10:21;9.80;99.90
33741;DHT22;20065;48.380;10.892;2023-04-25T00:13:07;9.70;99.90
33741;DHT22;20065;48.380;10.892;2023-04-25T00:15:54;9.70;99.90
33741;DHT22;20065;48.380;10.892;2023-04-25T00:18:40;9.60;99.90
33741;DHT22;20065;48.380;10.892;2023-04-25T00:21:26;9.60;99.90
33741;DHT22;20065;48.380;10.892;2023-04-25T00:24:14;9.60;99.90
33741;DHT22;20065;48.380;10.892;2023-04-25T00:27:00;9.50;99.90
33741;DHT22;20065;48.380;10.892;2023-04-25T00:29:46;9.50;99.90
33741;DHT22;20065;48.380;10.892;2023-04-25T00:32:32;9.50;99.90
33741;DHT22;20065;48.380;10.892;2023-04-25T00:35:18;9.50;99.90
33741;DHT22;20065;48.380;10.892;2023-04-25T00:38:05;9.40;99.90
33741;DHT22;20065;48.380;10.892;2023-04-25T00:40:51;9.50;99.90
33741;DHT22;20065;48.380;10.892;2023-04-25T00:43:40;9.40;99.90
33741;DHT22;20065;48.380;10.892;2023-04-25T00:46:26;9.40;99.90
33741;DHT22;20065;48.380;10.892;2023-04-25T00:49:12;9.40;99.90
33741;DHT22;20065;48.380;10.892;2023-04-25T00:52:01;9.40;99.90
33741;DHT22;20065;48.380;10.892;2023-04-25T00:54:47;9.30;99.90
33741;DHT22;20065;48.380;10.892;2023-04-25T00:57:34;9.30;99.90
33741;DHT22;20065;48.380;10.892;2023-04-25T01:00:20;9.30;99.90
33741;DHT22;20065;48.380;10.892;2023-04-25T01:03:07;9.30;99.90
33741;DHT22;20065;48.380;10.892;2023-04-25T01:05:53;9.40;99.90
33741;DHT22;20065;48.380;10.892;2023-04-25T01:08:40;9.40;99.90
33741;DHT22;20065;48.380;10.892;2023-04-25T01:11:26;9.40;99.90
33741;DHT22;20065;48.380;10.892;2023-04-25T01:14:12;9.60;99.90
33741;DHT22;20065;48.380;10.892;2023-04-25T01:16:58;9.60;99.90
33741;DHT22;20065;48.380;10.892;2023-04-25T01:19:45;9.70;99.90
33741;DHT22;20065;48.380;10.892;2023-04-25T01:22:34;9.80;99.90
33741;DHT22;20065;48.380;10.892;2023-04-25T01:25:23;9.80;99.90
33741;DHT22;20065;48.380;10.892;2023-04-25T01:28:10;9.90;99.90
33741;DHT22;20065;48.380;10.892;2023-04-25T01:30:56;9.90;99.90
33741;DHT22;20065;48.380;10.892;2023-04-25T01:33:44;9.70;99.90
33741;DHT22;20065;48.380;10.892;2023-04-25T01:36:30;9.50;99.90
33741;DHT22;20065;48.380;10.892;2023-04-25T01:39:17;9.40;99.90
33741;DHT22;20065;48.380;10.892;2023-04-25T01:42:04;9.30;99.90
33741;DHT22;20065;48.380;10.892;2023-04-25T01:44:50;9.30;99.90
33741;DHT22;20065;48.380;10.892;2023-04-25T01:47:38;9.40;99.90
33741;DHT22;20065;48.380;10.892;2023-04-25T01:50:25;9.40;99.90
33741;DHT22;20065;48.380;10.892;2023-04-25T01:53:12;9.50;99.90
33741;DHT22;20065;48.380;10.892;2023-04-25T01:55:59;9.50;99.90
33741;DHT22;20065;48.380;10.892;2023-04-25T01:58:49;9.50;99.90
33741;DHT22;20065;48.380;10.892;2023-04-25T02:01:57;9.40;99.90
33741;DHT22;20065;48.380;10.892;2023-04-25T02:04:48;9.50;99.90
33741;DHT22;20065;48.380;10.892;2023-04-25T02:07:35;9.50;99.90
33741;DHT22;20065;48.380;10.892;2023-04-25T02:10:21;9.60;99.90
33741;DHT22;20065;48.380;10.892;2023-04-25T02:13:20;9.70;99.90
33741;DHT22;20065;48.380;10.892;2023-04-25T02:16:29;9.70;99.90
33741;DHT22;20065;48.380;10.892;2023-04-25T02:19:16;9.50;99.90
33741;DHT22;20065;48.380;10.892;2023-04-25T02:22:03;9.40;99.90
33741;DHT22;20065;48.380;10.892;2023-04-25T02:24:49;9.30;99.90
33741;DHT22;20065;48.380;10.892;2023-04-25T02:27:35;9.30;99.90
33741;DHT22;20065;48.380;10.892;2023-04-25T02:30:21;9.30;99.90
33741;DHT22;20065;48.380;10.892;2023-04-25T02:33:08;9.30;99.90
33741;DHT22;20065;48.380;10.892;2023-04-25T02:35:55;9.20;99.90
33741;DHT22;20065;48.380;10.892;2023-04-25T02:38:41;9.20;99.90
33741;DHT22;20065;48.380;10.892;2023-04-25T02:41:27;9.10;99.90
33741;DHT22;20065;48.380;10.892;2023-04-25T02:44:15;9.10;99.90
33741;DHT22;20065;48.380;10.892;2023-04-25T02:47:01;9.00;99.90
33741;DHT22;20065;48.380;10.892;2023-04-25T02:49:49;9.00;99.90
33741;DHT22;20065;48.380;10.892;2023-04-25T02:52:36;9.00;99.90
33741;DHT22;20065;48.380;10.892;2023-04-25T02:55:30;8.90;99.90
33741;DHT22;20065;48.380;10.892;2023-04-25T02:58:17;9.00;99.90
33741;DHT22;20065;48.380;10.892;2023-04-25T03:01:06;8.90;99.90
33741;DHT22;20065;48.380;10.892;2023-04-25T03:03:53;8.90;99.90
33741;DHT22;20065;48.380;10.892;2023-04-25T03:06:39;8.80;99.90
33741;DHT22;20065;48.380;10.892;2023-04-25T03:09:25;8.90;99.90
33741;DHT22;20065;48.380;10.892;2023-04-25T03:12:12;8.90;99.90
33741;DHT22;20065;48.380;10.892;2023-04-25T03:14:58;9.00;99.90
33741;DHT22;20065;48.380;10.892;2023-04-25T03:17:44;9.00;99.90
33741;DHT22;20065;48.380;10.892;2023-04-25T03:20:30;9.10;99.90
33741;DHT22;20065;48.380;10.892;2023-04-25T03:23:17;9.20;99.90
33741;DHT22;20065;48.380;10.892;2023-04-25T03:26:03;9.20;99.90
33741;DHT22;20065;48.380;10.892;2023-04-25T03:28:49;9.30;99.90
33741;DHT22;20065;48.380;10.892;2023-04-25T03:31:36;9.20;99.90
33741;DHT22;20065;48.380;10.892;2023-04-25T03:34:22;9.10;99.90
33741;DHT22;20065;48.380;10.892;2023-04-25T03:37:09;9.00;99.90
33741;DHT22;20065;48.380;10.892;2023-04-25T03:39:57;9.00;99.90
33741;DHT22;20065;48.380;10.892;2023-04-25T03:42:50;8.90;99.90
33741;DHT22;20065;48.380;10.892;2023-04-25T03:45:37;8.90;99.90
33741;DHT22;20065;48.380;10.892;2023-04-25T03:48:23;8.90;99.90
33741;DHT22;20065;48.380;10.892;2023-04-25T03:51:11;9.00;99.90
33741;DHT22;20065;48.380;10.892;2023-04-25T03:54:01;9.10;99.90
33741;DHT22;20065;48.380;10.892;2023-04-25T03:56:51;9.00;99.90
33741;DHT22;20065;48.380;10.892;2023-04-25T03:59:40;9.00;99.90
33741;DHT22;20065;48.380;10.892;2023-04-25T04:02:29;8.90;99.90
33741;DHT22;20065;48.380;10.892;2023-04-25T04:05:18;8.90;99.90
33741;DHT22;20065;48.380;10.892;2023-04-25T04:08:11;8.90;99.90
33741;DHT22;20065;48.380;10.892;2023-04-25T04:10:59;8.90;99.90
33741;DHT22;20065;48.380;10.892;2023-04-25T04:13:46;8.80;99.90
33741;DHT22;20065;48.380;10.892;2023-04-25T04:16:32;8.90;99.90
33741;DHT22;20065;48.380;10.892;2023-04-25T04:19:18;8.80;99.90
33741;DHT22;20065;48.380;10.892;2023-04-25T04:22:12;8.80;99.90
33741;DHT22;20065;48.380;10.892;2023-04-25T04:24:59;8.80;99.90
33741;DHT22;20065;48.380;10.892;2023-04-25T04:28:23;8.80;99.90
33741;DHT22;20065;48.380;10.892;2023-04-25T04:31:17;8.80;99.90
33741;DHT22;20065;48.380;10.892;2023-04-25T04:34:05;8.80;99.90
33741;DHT22;20065;48.380;10.892;2023-04-25T04:36:53;8.80;99.90
33741;DHT22;20065;48.380;10.892;2023-04-25T04:39:40;8.90;99.90
33741;DHT22;20065;48.380;10.892;2023-04-25T04:42:47;8.90;99.90
33741;DHT22;20065;48.380;10.892;2023-04-25T04:46:00;8.90;99.90
33741;DHT22;20065;48.380;10.892;2023-04-25T04:49:01;8.80;99.90
33741;DHT22;20065;48.380;10.892;2023-04-25T04:52:04;8.70;99.90
33741;DHT22;20065;48.380;10.892;2023-04-25T04:55:19;8.70;99.90
33741;DHT22;20065;48.380;10.892;2023-04-25T04:58:25;8.70;99.90
33741;DHT22;20065;48.380;10.892;2023-04-25T05:01:22;8.60;99.90
33741;DHT22;20065;48.380;10.892;2023-04-25T05:04:28;8.60;99.90
33741;DHT22;20065;48.380;10.892;2023-04-25T05:07:37;8.70;99.90
33741;DHT22;20065;48.380;10.892;2023-04-25T05:10:28;8.70;99.90
33741;DHT22;20065;48.380;10.892;2023-04-25T05:13:24;8.60;99.90
33741;DHT22;20065;48.380;10.892;2023-04-25T05:16:33;8.50;99.90
33741;DHT22;20065;48.380;10.892;2023-04-25T05:19:49;8.50;99.90
33741;DHT22;20065;48.380;10.892;2023-04-25T05:22:43;8.40;99.90
33741;DHT22;20065;48.380;10.892;2023-04-25T05:25:39;8.30;99.90
33741;DHT22;20065;48.380;10.892;2023-04-25T05:28:32;8.20;99.90
33741;DHT22;20065;48.380;10.892;2023-04-25T05:31:36;8.10;99.90
33741;DHT22;20065;48.380;10.892;2023-04-25T05:34:35;8.10;99.90
33741;DHT22;20065;48.380;10.892;2023-04-25T05:37:25;8.20;99.90
33741;DHT22;20065;48.380;10.892;2023-04-25T05:40:25;8.20;99.90
33741;DHT22;20065;48.380;10.892;2023-04-25T05:43:34;8.30;99.90
33741;DHT22;20065;48.380;10.892;2023-04-25T05:46:35;8.30;99.90
33741;DHT22;20065;48.380;10.892;2023-04-25T05:49:34;8.40;99.90
33741;DHT22;20065;48.380;10.892;2023-04-25T05:52:38;8.50;99.90
33741;DHT22;20065;48.380;10.892;2023-04-25T05:55:37;8.60;99.90
33741;DHT22;20065;48.380;10.892;2023-04-25T05:58:37;8.60;99.90
33741;DHT22;20065;48.380;10.892;2023-04-25T06:01:24;8.60;99.90
33741;DHT22;20065;48.380;10.892;2023-04-25T06:04:10;8.60;99.90
33741;DHT22;20065;48.380;10.892;2023-04-25T06:06:56;8.60;99.90
33741;DHT22;20065;48.380;10.892;2023-04-25T06:09:49;8.50;99.90
33741;DHT22;20065;48.380;10.892;2023-04-25T06:12:35;8.50;99.90
33741;DHT22;20065;48.380;10.892;2023-04-25T06:15:23;8.50;99.90
33741;DHT22;20065;48.380;10.892;2023-04-25T06:18:09;8.50;99.90
33741;DHT22;20065;48.380;10.892;2023-04-25T06:20:56;8.60;99.90
33741;DHT22;20065;48.380;10.892;2023-04-25T06:23:43;8.70;99.90
33741;DHT22;20065;48.380;10.892;2023-04-25T06:26:32;8.70;99.90
33741;DHT22;20065;48.380;10.892;2023-04-25T06:29:18;8.70;99.90
33741;DHT22;20065;48.380;10.892;2023-04-25T06:32:06;8.70;99.90
33741;DHT22;20065;48.380;10.892;2023-04-25T06:34:52;8.70;99.90
33741;DHT22;20065;48.380;10.892;2023-04-25T06:37:39;8.70;99.90
33741;DHT22;20065;48.380;10.892;2023-04-25T06:40:25;8.70;99.90
33741;DHT22;20065;48.380;10.892;2023-04-25T06:43:11;9.00;99.90
33741;DHT22;20065;48.380;10.892;2023-04-25T06:46:23;8.80;99.90
33741;DHT22;20065;48.380;10.892;2023-04-25T06:49:10;8.80;99.90
33741;DHT22;20065;48.380;10.892;2023-04-25T06:51:56;8.70;99.90
33741;DHT22;20065;48.380;10.892;2023-04-25T06:54:42;8.80;99.90
33741;DHT22;20065;48.380;10.892;2023-04-25T06:57:39;8.70;99.90
33741;DHT22;20065;48.380;10.892;2023-04-25T07:00:48;8.70;99.90
33741;DHT22;20065;48.380;10.892;2023-04-25T07:03:34;8.60;99.90
33741;DHT22;20065;48.380;10.892;2023-04-25T07:06:26;8.60;99.90
33741;DHT22;20065;48.380;10.892;2023-04-25T07:09:14;8.60;99.90
33741;DHT22;20065;48.380;10.892;2023-04-25T07:12:04;8.70;99.90
33741;DHT22;20065;48.380;10.892;2023-04-25T07:14:51;8.70;99.90
33741;DHT22;20065;48.380;10.892;2023-04-25T07:17:37;9.00;99.90
33741;DHT22;20065;48.380;10.892;2023-04-25T07:20:26;8.80;99.90
33741;DHT22;20065;48.380;10.892;2023-04-25T07:23:14;8.80;99.90
33741;DHT22;20065;48.380;10.892;2023-04-25T07:26:00;9.00;99.90
33741;DHT22;20065;48.380;10.892;2023-04-25T07:28:47;9.10;99.90
33741;DHT22;20065;48.380;10.892;2023-04-25T07:31:36;9.00;99.90
33741;DHT22;20065;48.380;10.892;2023-04-25T07:34:23;9.00;99.90
33741;DHT22;20065;48.380;10.892;2023-04-25T07:37:09;9.10;99.90
33741;DHT22;20065;48.380;10.892;2023-04-25T07:40:05;9.10;99.90
33741;DHT22;20065;48.380;10.892;2023-04-25T07:42:51;9.20;99.90
33741;DHT22;20065;48.380;10.892;2023-04-25T07:45:45;9.40;99.90
33741;DHT22;20065;48.380;10.892;2023-04-25T07:48:31;9.50;99.90
33741;DHT22;20065;48.380;10.892;2023-04-25T07:51:17;9.60;99.90
33741;DHT22;20065;48.380;10.892;2023-04-25T07:54:06;9.60;99.90
33741;DHT22;20065;48.380;10.892;2023-04-25T07:56:55;9.60;99.90
33741;DHT22;20065;48.380;10.892;2023-04-25T07:59:46;9.60;99.90
33741;DHT22;20065;48.380;10.892;2023-04-25T08:02:32;9.70;99.90
33741;DHT22;20065;48.380;10.892;2023-04-25T08:05:19;9.70;99.90
33741;DHT22;20065;48.380;10.892;2023-04-25T08:08:10;9.70;99.90
33741;DHT22;20065;48.380;10.892;2023-04-25T08:10:57;9.80;99.90
33741;DHT22;20065;48.380;10.892;2023-04-25T08:13:50;9.90;99.90
33741;DHT22;20065;48.380;10.892;2023-04-25T08:16:42;9.90;99.90
33741;DHT22;20065;48.380;10.892;2023-04-25T08:19:33;10.10;99.90
33741;DHT22;20065;48.380;10.892;2023-04-25T08:22:20;10.20;99.90
33741;DHT22;20065;48.380;10.892;2023-04-25T08:25:13;10.30;99.90
33741;DHT22;20065;48.380;10.892;2023-04-25T08:28:00;10.40;99.90
33741;DHT22;20065;48.380;10.892;2023-04-25T08:30:55;10.60;99.90
33741;DHT22;20065;48.380;10.892;2023-04-25T08:33:41;10.60;99.90
33741;DHT22;20065;48.380;10.892;2023-04-25T08:36:41;10.70;99.90
33741;DHT22;20065;48.380;10.892;2023-04-25T08:39:50;10.60;99.90
33741;DHT22;20065;48.380;10.892;2023-04-25T08:42:53;10.60;99.90
33741;DHT22;20065;48.380;10.892;2023-04-25T08:45:40;10.70;99.90
33741;DHT22;20065;48.380;10.892;2023-04-25T08:48:28;10.90;99.90
33741;DHT22;20065;48.380;10.892;2023-04-25T08:51:24;11.00;99.90
33741;DHT22;20065;48.380;10.892;2023-04-25T08:54:13;11.00;99.90
33741;DHT22;20065;48.380;10.892;2023-04-25T08:57:01;10.90;99.90
33741;DHT22;20065;48.380;10.892;2023-04-25T08:59:49;10.90;99.90
33741;DHT22;20065;48.380;10.892;2023-04-25T09:02:39;10.90;99.90
33741;DHT22;20065;48.380;10.892;2023-04-25T09:05:28;10.90;99.90
33741;DHT22;20065;48.380;10.892;2023-04-25T09:08:17;10.90;99.90
33741;DHT22;20065;48.380;10.892;2023-04-25T09:11:03;10.90;99.90
33741;DHT22;20065;48.380;10.892;2023-04-25T09:14:10;11.10;99.90
33741;DHT22;20065;48.380;10.892;2023-04-25T09:17:18;11.10;99.90
33741;DHT22;20065;48.380;10.892;2023-04-25T09:20:11;11.10;99.90
33741;DHT22;20065;48.380;10.892;2023-04-25T09:23:12;11.10;99.90
33741;DHT22;20065;48.380;10.892;2023-04-25T09:25:58;11.20;99.90
33741;DHT22;20065;48.380;10.892;2023-04-25T09:28:47;11.30;99.90
33741;DHT22;20065;48.380;10.892;2023-04-25T09:31:42;11.40;99.90
33741;DHT22;20065;48.380;10.892;2023-04-25T09:34:45;11.40;99.90
33741;DHT22;20065;48.380;10.892;2023-04-25T09:37:37;11.30;99.90
33741;DHT22;20065;48.380;10.892;2023-04-25T09:40:51;11.20;99.90
33741;DHT22;20065;48.380;10.892;2023-04-25T09:44:07;11.10;99.90
33741;DHT22;20065;48.380;10.892;2023-04-25T09:46:57;11.10;99.90
33741;DHT22;20065;48.380;10.892;2023-04-25T09:49:52;11.20;99.90
33741;DHT22;20065;48.380;10.892;2023-04-25T09:52:40;11.40;99.90
33741;DHT22;20065;48.380;10.892;2023-04-25T09:55:59;11.20;99.90
33741;DHT22;20065;48.380;10.892;2023-04-25T09:58:50;11.10;99.90
33741;DHT22;20065;48.380;10.892;2023-04-25T10:01:40;11.00;99.90
33741;DHT22;20065;48.380;10.892;2023-04-25T10:04:45;10.60;99.90
33741;DHT22;20065;48.380;10.892;2023-04-25T10:07:41;10.30;99.90
33741;DHT22;20065;48.380;10.892;2023-04-25T10:10:36;9.90;99.90
33741;DHT22;20065;48.380;10.892;2023-04-25T10:13:24;9.90;99.90
33741;DHT22;20065;48.380;10.892;2023-04-25T10:16:11;9.70;99.90
33741;DHT22;20065;48.380;10.892;2023-04-25T10:19:05;9.80;99.90
33741;DHT22;20065;48.380;10.892;2023-04-25T10:22:16;9.80;99.90
33741;DHT22;20065;48.380;10.892;2023-04-25T10:25:06;9.90;99.90
33741;DHT22;20065;48.380;10.892;2023-04-25T10:27:55;10.10;99.90
33741;DHT22;20065;48.380;10.892;2023-04-25T10:31:01;10.10;99.90
33741;DHT22;20065;48.380;10.892;2023-04-25T10:33:49;10.20;99.90
33741;DHT22;20065;48.380;10.892;2023-04-25T10:36:36;10.20;99.90
33741;DHT22;20065;48.380;10.892;2023-04-25T10:39:27;10.40;99.90
33741;DHT22;20065;48.380;10.892;2023-04-25T10:42:13;10.50;99.90
33741;DHT22;20065;48.380;10.892;2023-04-25T10:45:05;10.40;99.90
33741;DHT22;20065;48.380;10.892;2023-04-25T10:47:51;10.70;99.90
33741;DHT22;20065;48.380;10.892;2023-04-25T10:50:41;10.50;99.90
33741;DHT22;20065;48.380;10.892;2023-04-25T10:53:38;10.50;99.90
33741;DHT22;20065;48.380;10.892;2023-04-25T10:56:38;10.60;99.90
33741;DHT22;20065;48.380;10.892;2023-04-25T10:59:26;10.70;99.90
33741;DHT22;20065;48.380;10.892;2023-04-25T11:02:13;10.80;99.90
33741;DHT22;20065;48.380;10.892;2023-04-25T11:05:02;10.80;99.90
33741;DHT22;20065;48.380;10.892;2023-04-25T11:07:53;10.80;99.90
33741;DHT22;20065;48.380;10.892;2023-04-25T11:10:44;11.00;99.90
33741;DHT22;20065;48.380;10.892;2023-04-25T11:13:30;11.00;99.90
33741;DHT22;20065;48.380;10.892;2023-04-25T11:16:17;10.90;99.90
33741;DHT22;20065;48.380;10.892;2023-04-25T11:19:03;11.00;99.90
33741;DHT22;20065;48.380;10.892;2023-04-25T11:21:50;11.00;99.90
33741;DHT22;20065;48.380;10.892;2023-04-25T11:24:36;11.10;99.90
33741;DHT22;20065;48.380;10.892;2023-04-25T11:27:23;11.20;99.90
33741;DHT22;20065;48.380;10.892;2023-04-25T11:30:14;11.30;99.90
33741;DHT22;20065;48.380;10.892;2023-04-25T11:33:06;11.50;99.90
33741;DHT22;20065;48.380;10.892;2023-04-25T11:35:56;11.50;99.90
33741;DHT22;20065;48.380;10.892;2023-04-25T11:38:42;10.90;99.90
33741;DHT22;20065;48.380;10.892;2023-04-25T11:41:28;10.00;99.90
33741;DHT22;20065;48.380;10.892;2023-04-25T11:44:18;9.50;99.90
33741;DHT22;20065;48.380;10.892;2023-04-25T11:47:05;9.10;99.90
33741;DHT22;20065;48.380;10.892;2023-04-25T11:49:53;8.90;99.90
33741;DHT22;20065;48.380;10.892;2023-04-25T11:52:46;8.90;99.90
33741;DHT22;20065;48.380;10.892;2023-04-25T11:55:32;8.80;99.90
33741;DHT22;20065;48.380;10.892;2023-04-25T11:58:18;8.50;99.90
33741;DHT22;20065;48.380;10.892;2023-04-25T12:01:05;8.30;99.90
33741;DHT22;20065;48.380;10.892;2023-04-25T12:03:51;8.30;99.90
33741;DHT22;20065;48.380;10.892;2023-04-25T12:06:39;8.30;99.90
33741;DHT22;20065;48.380;10.892;2023-04-25T12:09:33;8.30;99.90
33741;DHT22;20065;48.380;10.892;2023-04-25T12:12:20;8.30;99.90
33741;DHT22;20065;48.380;10.892;2023-04-25T12:15:18;8.30;99.90
33741;DHT22;20065;48.380;10.892;2023-04-25T12:18:07;8.50;99.90
33741;DHT22;20065;48.380;10.892;2023-04-25T12:20:53;8.60;99.90
33741;DHT22;20065;48.380;10.892;2023-04-25T12:23:41;8.70;99.90
33741;DHT22;20065;48.380;10.892;2023-04-25T12:26:52;8.70;99.90
33741;DHT22;20065;48.380;10.892;2023-04-25T12:29:38;8.80;99.90
33741;DHT22;20065;48.380;10.892;2023-04-25T12:32:25;8.80;99.90
33741;DHT22;20065;48.380;10.892;2023-04-25T12:35:12;8.80;99.90
33741;DHT22;20065;48.380;10.892;2023-04-25T12:37:58;8.70;99.90
33741;DHT22;20065;48.380;10.892;2023-04-25T12:40:44;8.50;99.90
33741;DHT22;20065;48.380;10.892;2023-04-25T12:43:31;8.20;99.90
33741;DHT22;20065;48.380;10.892;2023-04-25T12:46:17;8.00;99.90
33741;DHT22;20065;48.380;10.892;2023-04-25T12:49:04;7.80;99.90
33741;DHT22;20065;48.380;10.892;2023-04-25T12:51:50;7.80;99.90
33741;DHT22;20065;48.380;10.892;2023-04-25T12:54:37;7.80;99.90
33741;DHT22;20065;48.380;10.892;2023-04-25T12:57:24;8.00;99.90
33741;DHT22;20065;48.380;10.892;2023-04-25T13:00:11;8.10;99.90
33741;DHT22;20065;48.380;10.892;2023-04-25T13:03:01;8.10;99.90
33741;DHT22;20065;48.380;10.892;2023-04-25T13:05:48;8.20;99.90
33741;DHT22;20065;48.380;10.892;2023-04-25T13:08:34;8.30;99.90
33741;DHT22;20065;48.380;10.892;2023-04-25T13:11:22;8.30;99.90
33741;DHT22;20065;48.380;10.892;2023-04-25T13:14:08;8.30;99.90
33741;DHT22;20065;48.380;10.892;2023-04-25T13:16:54;8.20;99.90
33741;DHT22;20065;48.380;10.892;2023-04-25T13:19:41;8.30;99.90
33741;DHT22;20065;48.380;10.892;2023-04-25T13:22:27;8.40;99.90
33741;DHT22;20065;48.380;10.892;2023-04-25T13:25:14;8.40;99.90
33741;DHT22;20065;48.380;10.892;2023-04-25T13:28:02;8.40;99.90
33741;DHT22;20065;48.380;10.892;2023-04-25T13:30:48;8.40;99.90
33741;DHT22;20065;48.380;10.892;2023-04-25T13:33:35;8.30;99.90
33741;DHT22;20065;48.380;10.892;2023-04-25T13:36:21;8.20;99.90
33741;DHT22;20065;48.380;10.892;2023-04-25T13:39:10;8.30;99.90
33741;DHT22;20065;48.380;10.892;2023-04-25T13:41:57;8.30;99.90
33741;DHT22;20065;48.380;10.892;2023-04-25T13:44:43;8.20;99.90
33741;DHT22;20065;48.380;10.892;2023-04-25T13:47:30;8.10;99.90
33741;DHT22;20065;48.380;10.892;2023-04-25T13:50:22;8.20;99.90
33741;DHT22;20065;48.380;10.892;2023-04-25T13:53:17;8.20;99.90
33741;DHT22;20065;48.380;10.892;2023-04-25T13:56:04;8.30;99.90
33741;DHT22;20065;48.380;10.892;2023-04-25T13:58:51;8.40;99.90
33741;DHT22;20065;48.380;10.892;2023-04-25T14:01:37;8.50;99.90
33741;DHT22;20065;48.380;10.892;2023-04-25T14:04:24;8.60;99.90
33741;DHT22;20065;48.380;10.892;2023-04-25T14:07:10;8.70;99.90
33741;DHT22;20065;48.380;10.892;2023-04-25T14:09:57;8.70;99.90
33741;DHT22;20065;48.380;10.892;2023-04-25T14:12:46;8.70;99.90
33741;DHT22;20065;48.380;10.892;2023-04-25T14:15:33;8.70;99.90
33741;DHT22;20065;48.380;10.892;2023-04-25T14:18:19;8.80;99.90
33741;DHT22;20065;48.380;10.892;2023-04-25T14:21:06;9.00;99.90
33741;DHT22;20065;48.380;10.892;2023-04-25T14:23:52;9.00;99.90
33741;DHT22;20065;48.380;10.892;2023-04-25T14:26:39;8.90;99.90
33741;DHT22;20065;48.380;10.892;2023-04-25T14:29:26;8.90;99.90
33741;DHT22;20065;48.380;10.892;2023-04-25T14:32:12;8.80;99.90
33741;DHT22;20065;48.380;10.892;2023-04-25T14:34:59;8.80;99.90
33741;DHT22;20065;48.380;10.892;2023-04-25T14:37:46;9.00;99.90
33741;DHT22;20065;48.380;10.892;2023-04-25T14:40:32;9.00;99.90
33741;DHT22;20065;48.380;10.892;2023-04-25T14:43:18;9.00;99.90
33741;DHT22;20065;48.380;10.892;2023-04-25T14:46:04;9.00;99.90
33741;DHT22;20065;48.380;10.892;2023-04-25T14:48:51;9.10;99.90
33741;DHT22;20065;48.380;10.892;2023-04-25T14:51:37;9.10;99.90
33741;DHT22;20065;48.380;10.892;2023-04-25T14:54:23;9.20;99.90
33741;DHT22;20065;48.380;10.892;2023-04-25T14:57:13;9.20;99.90
33741;DHT22;20065;48.380;10.892;2023-04-25T15:00:00;9.10;99.90
33741;DHT22;20065;48.380;10.892;2023-04-25T15:02:46;9.10;99.90
33741;DHT22;20065;48.380;10.892;2023-04-25T15:05:34;9.20;99.90
33741;DHT22;20065;48.380;10.892;2023-04-25T15:08:20;9.00;99.90
33741;DHT22;20065;48.380;10.892;2023-04-25T15:11:06;9.10;99.90
33741;DHT22;20065;48.380;10.892;2023-04-25T15:13:53;9.00;99.90
33741;DHT22;20065;48.380;10.892;2023-04-25T15:16:42;8.80;99.90
33741;DHT22;20065;48.380;10.892;2023-04-25T15:19:28;8.70;99.90
33741;DHT22;20065;48.380;10.892;2023-04-25T15:22:14;8.60;99.90
33741;DHT22;20065;48.380;10.892;2023-04-25T15:25:03;8.60;99.90
33741;DHT22;20065;48.380;10.892;2023-04-25T15:28:00;8.70;99.90
33741;DHT22;20065;48.380;10.892;2023-04-25T15:30:49;8.80;99.90
33741;DHT22;20065;48.380;10.892;2023-04-25T15:33:37;8.80;99.90
33741;DHT22;20065;48.380;10.892;2023-04-25T15:36:34;8.80;99.90
33741;DHT22;20065;48.380;10.892;2023-04-25T15:39:20;8.90;99.90
33741;DHT22;20065;48.380;10.892;2023-04-25T15:42:07;8.90;99.90
33741;DHT22;20065;48.380;10.892;2023-04-25T15:44:53;8.90;99.90
33741;DHT22;20065;48.380;10.892;2023-04-25T15:47:39;8.90;99.90
33741;DHT22;20065;48.380;10.892;2023-04-25T15:50:26;8.80;99.90
33741;DHT22;20065;48.380;10.892;2023-04-25T15:53:12;8.80;99.90
33741;DHT22;20065;48.380;10.892;2023-04-25T15:56:01;8.90;99.90
33741;DHT22;20065;48.380;10.892;2023-04-25T15:58:47;9.00;99.90
33741;DHT22;20065;48.380;10.892;2023-04-25T16:01:33;9.10;99.90
33741;DHT22;20065;48.380;10.892;2023-04-25T16:04:19;9.20;99.90
33741;DHT22;20065;48.380;10.892;2023-04-25T16:07:06;9.20;99.90
33741;DHT22;20065;48.380;10.892;2023-04-25T16:09:53;9.40;99.90
33741;DHT22;20065;48.380;10.892;2023-04-25T16:12:39;9.60;99.90
33741;DHT22;20065;48.380;10.892;2023-04-25T16:15:26;9.70;99.90
33741;DHT22;20065;48.380;10.892;2023-04-25T16:18:12;9.70;99.90
33741;DHT22;20065;48.380;10.892;2023-04-25T16:20:58;9.80;99.90
33741;DHT22;20065;48.380;10.892;2023-04-25T16:23:45;9.80;99.90
33741;DHT22;20065;48.380;10.892;2023-04-25T16:26:32;9.90;99.90
33741;DHT22;20065;48.380;10.892;2023-04-25T16:29:18;9.80;99.90
33741;DHT22;20065;48.380;10.892;2023-04-25T16:32:04;9.70;99.90
33741;DHT22;20065;48.380;10.892;2023-04-25T16:34:51;9.50;99.90
33741;DHT22;20065;48.380;10.892;2023-04-25T16:37:37;9.30;99.90
33741;DHT22;20065;48.380;10.892;2023-04-25T16:40:23;9.30;99.90
33741;DHT22;20065;48.380;10.892;2023-04-25T16:43:23;9.10;99.90
33741;DHT22;20065;48.380;10.892;2023-04-25T16:46:30;9.00;99.90
33741;DHT22;20065;48.380;10.892;2023-04-25T16:49:17;8.90;99.90
33741;DHT22;20065;48.380;10.892;2023-04-25T16:52:04;8.90;99.90
33741;DHT22;20065;48.380;10.892;2023-04-25T16:54:50;8.90;99.90
33741;DHT22;20065;48.380;10.892;2023-04-25T16:57:36;8.90;99.90
33741;DHT22;20065;48.380;10.892;2023-04-25T17:00:22;9.00;99.90
33741;DHT22;20065;48.380;10.892;2023-04-25T17:03:09;9.10;99.90
33741;DHT22;20065;48.380;10.892;2023-04-25T17:05:55;9.20;99.90
33741;DHT22;20065;48.380;10.892;2023-04-25T17:08:42;9.30;99.90
33741;DHT22;20065;48.380;10.892;2023-04-25T17:11:28;9.30;99.90
33741;DHT22;20065;48.380;10.892;2023-04-25T17:14:15;9.20;99.90
33741;DHT22;20065;48.380;10.892;2023-04-25T17:17:03;9.20;99.90
33741;DHT22;20065;48.380;10.892;2023-04-25T17:19:49;9.20;99.90
33741;DHT22;20065;48.380;10.892;2023-04-25T17:22:42;9.20;99.90
33741;DHT22;20065;48.380;10.892;2023-04-25T17:25:34;9.30;99.90
33741;DHT22;20065;48.380;10.892;2023-04-25T17:28:20;9.30;99.90
33741;DHT22;20065;48.380;10.892;2023-04-25T17:31:08;9.40;99.90
33741;DHT22;20065;48.380;10.892;2023-04-25T17:33:56;9.30;99.90
33741;DHT22;20065;48.380;10.892;2023-04-25T17:36:43;9.40;99.90
33741;DHT22;20065;48.380;10.892;2023-04-25T17:39:29;9.40;99.90
33741;DHT22;20065;48.380;10.892;2023-04-25T17:42:16;9.50;99.90
33741;DHT22;20065;48.380;10.892;2023-04-25T17:45:03;9.60;99.90
33741;DHT22;20065;48.380;10.892;2023-04-25T17:48:00;9.60;99.90
33741;DHT22;20065;48.380;10.892;2023-04-25T17:50:46;9.60;99.90